createdAt,value
2023-02-13T00:00:15.268Z,100230.34
2023-02-13T00:01:17.420Z,100227.75
2023-02-13T00:02:19.406Z,100225.19
2023-02-13T00:03:21.554Z,100221.75
2023-02-13T00:04:23.576Z,100232.91
2023-02-13T00:05:25.562Z,100228.63
2023-02-13T00:06:27.600Z,100228.66
2023-02-13T00:07:29.655Z,100230.44
2023-02-13T00:08:31.688Z,100223.59
2023-02-13T00:09:33.732Z,100220.13
2023-02-13T00:10:35.686Z,100218.34
2023-02-13T00:11:37.948Z,100216.66
2023-02-13T00:12:40.182Z,100225.28
2023-02-13T00:13:42.307Z,100217.53
2023-02-13T00:14:44.278Z,100220.16
2023-02-13T00:15:46.489Z,100215.00
2023-02-13T00:16:48.404Z,100216.72
2023-02-13T00:17:50.324Z,100219.34
2023-02-13T00:18:52.385Z,100216.72
2023-02-13T00:19:54.573Z,100219.34
2023-02-13T00:21:03.864Z,100218.44
2023-02-13T00:22:05.981Z,100217.56
2023-02-13T00:23:07.996Z,100215.84
2023-02-13T00:24:10.100Z,100227.91
2023-02-13T00:25:12.649Z,100220.13
2023-02-13T00:26:17.117Z,100232.19
2023-02-13T00:27:19.057Z,100217.56
2023-02-13T00:28:21.065Z,100227.91
2023-02-13T00:29:23.019Z,100220.13
2023-02-13T00:30:25.167Z,100225.28
2023-02-13T00:31:27.288Z,100222.69
2023-02-13T00:32:29.824Z,100217.56
2023-02-13T00:33:31.860Z,100225.38
2023-02-13T00:34:33.880Z,100215.88
2023-02-13T00:35:36.030Z,100225.38
2023-02-13T00:36:38.062Z,100227.91
2023-02-13T00:37:40.126Z,100218.44
2023-02-13T00:38:42.971Z,100221.03
2023-02-13T00:39:45.347Z,100225.38
2023-02-13T00:40:47.316Z,100227.91
2023-02-13T00:41:49.369Z,100230.44
2023-02-13T00:42:51.399Z,100212.31
2023-02-13T00:43:53.595Z,100219.19
2023-02-13T00:44:55.605Z,100218.25
2023-02-13T00:46:01.401Z,100213.19
2023-02-13T00:47:03.555Z,100222.63
2023-02-13T00:48:05.500Z,100214.03
2023-02-13T00:49:07.522Z,100220.00
2023-02-13T00:50:09.806Z,100219.19
2023-02-13T00:51:12.417Z,100213.91
2023-02-13T00:52:14.629Z,100219.91
2023-02-13T00:53:16.583Z,100222.50
2023-02-13T00:54:18.766Z,100225.75
2023-02-13T00:55:20.984Z,100226.72
2023-02-13T00:56:23.980Z,100231.78
2023-02-13T00:57:26.241Z,100230.13
2023-02-13T00:58:28.479Z,100223.19
2023-02-13T00:59:30.470Z,100230.13
2023-02-13T01:00:32.529Z,100224.97
2023-02-13T01:01:34.762Z,100223.19
2023-02-13T01:02:36.780Z,100225.75
2023-02-13T01:03:39.235Z,100229.94
2023-02-13T01:04:41.345Z,100227.38
2023-02-13T01:05:44.812Z,100226.50
2023-02-13T01:06:46.873Z,100227.25
2023-02-13T01:07:49.055Z,100232.41
2023-02-13T01:08:51.036Z,100235.06
2023-02-13T01:09:52.970Z,100226.31
2023-02-13T01:10:56.148Z,100222.09
2023-02-13T01:11:58.372Z,100228.97
2023-02-13T01:13:00.412Z,100233.28
2023-02-13T01:14:02.378Z,100224.75
2023-02-13T01:15:06.350Z,100234.16
2023-02-13T01:16:08.663Z,100228.13
2023-02-13T01:17:10.698Z,100231.53
2023-02-13T01:18:18.295Z,100228.03
2023-02-13T01:19:20.354Z,100228.91
2023-02-13T01:20:22.315Z,100237.47
2023-02-13T01:21:24.626Z,100233.19
2023-02-13T01:22:26.719Z,100237.44
2023-02-13T01:23:33.789Z,100241.75
2023-02-13T01:24:35.783Z,100231.44
2023-02-13T01:25:42.377Z,100238.34
2023-02-13T01:26:44.594Z,100240.00
2023-02-13T01:27:46.719Z,100233.94
2023-02-13T01:28:48.969Z,100236.47
2023-02-13T01:29:51.013Z,100231.31
2023-02-13T01:30:57.517Z,100231.31
2023-02-13T01:32:00.332Z,100235.63
2023-02-13T01:33:02.523Z,100236.38
2023-02-13T01:34:04.544Z,100235.44
2023-02-13T01:35:07.076Z,100237.16
2023-02-13T01:36:11.564Z,100237.16
2023-02-13T01:37:14.126Z,100232.06
2023-02-13T01:38:16.126Z,100229.47
2023-02-13T01:39:18.416Z,100236.38
2023-02-13T01:40:20.525Z,100236.38
2023-02-13T01:41:23.124Z,100230.34
2023-02-13T01:42:27.844Z,100230.16
2023-02-13T01:43:56.255Z,100223.31
2023-02-13T01:45:03.829Z,100226.84
2023-02-13T01:46:06.145Z,100219.09
2023-02-13T01:47:10.857Z,100231.91
2023-02-13T01:48:21.735Z,100227.66
2023-02-13T01:49:26.278Z,100226.75
2023-02-13T01:50:40.078Z,100231.03
2023-02-13T01:51:44.208Z,100231.00
2023-02-13T01:53:03.364Z,100232.75
2023-02-13T01:54:13.310Z,100234.50
2023-02-13T01:55:16.966Z,100235.31
2023-02-13T01:56:25.864Z,100237.03
2023-02-13T01:57:30.699Z,100227.59
2023-02-13T01:58:36.156Z,100231.88
2023-02-13T01:59:45.197Z,100236.16
2023-02-13T02:00:50.834Z,100234.44
2023-02-13T02:01:54.465Z,100234.50
2023-02-13T02:03:05.645Z,100230.16
2023-02-13T02:04:14.105Z,100231.00
2023-02-13T02:05:19.229Z,100227.56
2023-02-13T02:06:29.534Z,100225.78
2023-02-13T02:07:33.336Z,100230.13
2023-02-13T02:08:36.659Z,100228.34
2023-02-13T02:09:41.572Z,100230.91
2023-02-13T02:10:44.088Z,100232.63
2023-02-13T02:11:56.402Z,100228.34
2023-02-13T02:13:20.789Z,100234.28
2023-02-13T02:14:23.211Z,100229.91
2023-02-13T02:15:25.611Z,100235.97
2023-02-13T02:16:27.818Z,100228.25
2023-02-13T02:17:29.850Z,100228.31
2023-02-13T02:18:31.852Z,100234.28
2023-02-13T02:19:48.135Z,100227.38
2023-02-13T02:20:56.419Z,100225.63
2023-02-13T02:22:28.929Z,100218.81
2023-02-13T02:24:15.797Z,100210.16
2023-02-13T02:25:38.324Z,100212.69
2023-02-13T02:26:52.457Z,100211.69
2023-02-13T02:28:19.216Z,100210.75
2023-02-13T02:29:36.393Z,100201.28
2023-02-13T02:30:38.231Z,100207.31
2023-02-13T02:31:52.178Z,100215.03
2023-02-13T02:33:18.629Z,100209.78
2023-02-13T02:34:38.619Z,100208.81
2023-02-13T02:36:06.021Z,100213.09
2023-02-13T02:37:22.950Z,100212.25
2023-02-13T02:38:52.788Z,100209.44
2023-02-13T02:40:14.297Z,100216.41
2023-02-13T02:41:46.418Z,100224.03
2023-02-13T02:43:15.705Z,100223.19
2023-02-13T02:44:51.586Z,100212.88
2023-02-13T02:46:23.135Z,100212.81
2023-02-13T02:47:50.480Z,100223.94
2023-02-13T02:49:13.687Z,100214.41
2023-02-13T02:50:34.873Z,100212.59
2023-02-13T02:52:00.284Z,100218.50
2023-02-13T02:53:17.583Z,100211.50
2023-02-13T02:54:52.580Z,100211.50
2023-02-13T02:56:06.584Z,100209.69
2023-02-13T02:57:17.785Z,100203.59
2023-02-13T02:58:43.504Z,100206.94
2023-02-13T03:00:05.646Z,100213.78
2023-02-13T03:01:32.146Z,100212.03
2023-02-13T03:02:53.479Z,100214.59
2023-02-13T03:04:16.119Z,100211.91
2023-02-13T03:05:41.330Z,100211.06
2023-02-13T03:06:57.038Z,100221.38
2023-02-13T03:07:59.052Z,100214.59
2023-02-13T03:09:25.280Z,100218.91
2023-02-13T03:10:52.065Z,100214.78
2023-02-13T03:12:15.401Z,100226.84
2023-02-13T03:13:44.496Z,100214.00
2023-02-13T03:14:46.531Z,100217.50
2023-02-13T03:16:15.163Z,100213.22
2023-02-13T03:17:37.951Z,100223.63
2023-02-13T03:19:02.246Z,100215.13
2023-02-13T03:20:34.409Z,100222.09
2023-02-13T03:22:09.819Z,100216.94
2023-02-13T03:23:17.170Z,100222.13
2023-02-13T03:24:40.821Z,100218.69
2023-02-13T03:25:53.085Z,100221.25
2023-02-13T03:27:12.136Z,100216.97
2023-02-13T03:28:53.770Z,100209.31
2023-02-13T03:30:07.300Z,100211.06
2023-02-13T03:31:27.645Z,100216.22
2023-02-13T03:32:45.621Z,100215.34
2023-02-13T03:33:53.715Z,100207.66
2023-02-13T03:35:35.351Z,100212.81
2023-02-13T03:37:04.805Z,100214.56
2023-02-13T03:38:17.351Z,100213.66
2023-02-13T03:39:45.541Z,100215.38
2023-02-13T03:41:19.612Z,100211.00
2023-02-13T03:42:46.472Z,100212.69
2023-02-13T03:44:10.024Z,100213.47
2023-02-13T03:45:47.349Z,100215.00
2023-02-13T03:46:53.650Z,100214.09
2023-02-13T03:47:57.970Z,100208.91
2023-02-13T03:49:21.622Z,100210.63
2023-02-13T03:50:26.968Z,100213.00
2023-02-13T03:51:48.121Z,100222.56
2023-02-13T03:53:02.118Z,100217.41
2023-02-13T03:54:49.920Z,100220.06
2023-02-13T03:56:12.081Z,100226.94
2023-02-13T03:57:35.586Z,100223.50
2023-02-13T03:58:59.776Z,100220.06
2023-02-13T04:00:05.369Z,100213.09
2023-02-13T04:01:10.140Z,100215.66
2023-02-13T04:02:16.129Z,100222.44
2023-02-13T04:03:28.511Z,100230.16
2023-02-13T04:04:44.110Z,100224.19
2023-02-13T04:05:54.702Z,100220.81
2023-02-13T04:06:59.480Z,100223.38
2023-02-13T04:08:01.533Z,100219.03
2023-02-13T04:09:04.061Z,100213.00
2023-02-13T04:10:16.401Z,100210.50
2023-02-13T04:11:36.552Z,100206.22
2023-02-13T04:13:09.449Z,100216.69
2023-02-13T04:14:16.742Z,100215.88
2023-02-13T04:15:21.917Z,100207.22
2023-02-13T04:16:52.494Z,100213.22
2023-02-13T04:18:19.839Z,100202.94
2023-02-13T04:19:23.462Z,100207.22
2023-02-13T04:20:28.757Z,100211.50
2023-02-13T04:21:35.068Z,100215.78
2023-02-13T04:22:43.848Z,100213.19
2023-02-13T04:23:45.855Z,100213.19
2023-02-13T04:24:48.134Z,100221.84
2023-02-13T04:25:54.453Z,100219.38
2023-02-13T04:26:57.159Z,100224.66
2023-02-13T04:27:59.292Z,100218.63
2023-02-13T04:29:01.362Z,100209.22
2023-02-13T04:30:03.711Z,100215.28
2023-02-13T04:31:06.258Z,100210.09
2023-02-13T04:32:09.578Z,100200.66
2023-02-13T04:33:11.692Z,100209.25
2023-02-13T04:34:13.826Z,100206.69
2023-02-13T04:35:15.925Z,100210.97
2023-02-13T04:36:17.870Z,100216.09
2023-02-13T04:37:19.928Z,100220.53
2023-02-13T04:38:21.811Z,100226.59
2023-02-13T04:39:23.740Z,100224.97
2023-02-13T04:40:25.919Z,100225.09
2023-02-13T04:41:28.310Z,100230.16
2023-02-13T04:42:30.450Z,100230.25
2023-02-13T04:43:32.398Z,100232.94
2023-02-13T04:44:34.550Z,100237.03
2023-02-13T04:45:36.591Z,100234.56
2023-02-13T04:46:38.698Z,100232.81
2023-02-13T04:47:40.786Z,100238.88
2023-02-13T04:48:42.748Z,100233.72
2023-02-13T04:49:44.985Z,100236.38
2023-02-13T04:50:48.127Z,100233.84
2023-02-13T04:51:50.334Z,100232.19
2023-02-13T04:52:57.164Z,100224.53
2023-02-13T04:53:59.258Z,100233.25
2023-02-13T04:55:01.150Z,100223.84
2023-02-13T04:56:03.158Z,100227.38
2023-02-13T04:57:05.278Z,100220.47
2023-02-13T04:58:07.253Z,100222.22
2023-02-13T04:59:09.369Z,100222.22
2023-02-13T05:00:12.092Z,100222.22
2023-02-13T05:01:15.973Z,100217.91
2023-02-13T05:02:18.022Z,100223.97
2023-02-13T05:03:19.974Z,100222.22
2023-02-13T05:04:22.335Z,100229.22
2023-02-13T05:05:24.303Z,100227.59
2023-02-13T05:06:26.528Z,100228.53
2023-02-13T05:07:28.584Z,100226.06
2023-02-13T05:08:30.687Z,100230.28
2023-02-13T05:09:32.674Z,100229.34
2023-02-13T05:10:35.394Z,100225.13
2023-02-13T05:11:37.330Z,100231.22
2023-02-13T05:12:39.395Z,100222.66
2023-02-13T05:13:41.496Z,100227.81
2023-02-13T05:14:43.600Z,100225.19
2023-02-13T05:15:45.694Z,100219.16
2023-02-13T05:16:48.147Z,100222.66
2023-02-13T05:17:50.475Z,100218.44
2023-02-13T05:18:55.125Z,100221.88
2023-02-13T05:19:57.315Z,100215.09
2023-02-13T05:21:17.664Z,100217.72
2023-02-13T05:22:38.512Z,100220.41
2023-02-13T05:23:40.762Z,100217.94
2023-02-13T05:24:42.814Z,100219.75
2023-02-13T05:25:44.902Z,100209.50
2023-02-13T05:26:47.087Z,100208.66
2023-02-13T05:27:49.051Z,100208.72
2023-02-13T05:29:09.480Z,100209.69
2023-02-13T05:30:12.657Z,100213.25
2023-02-13T05:31:14.937Z,100202.16
2023-02-13T05:32:17.086Z,100214.22
2023-02-13T05:33:19.098Z,100199.69
2023-02-13T05:34:22.951Z,100208.34
2023-02-13T05:35:26.008Z,100209.28
2023-02-13T05:36:28.035Z,100204.84
2023-02-13T05:37:30.141Z,100206.59
2023-02-13T05:38:32.272Z,100206.59
2023-02-13T05:39:34.383Z,100208.34
2023-02-13T05:40:36.401Z,100203.19
2023-02-13T05:41:38.691Z,100206.66
2023-02-13T05:42:42.109Z,100213.59
2023-02-13T05:43:44.095Z,100218.00
2023-02-13T05:44:46.106Z,100215.47
2023-02-13T05:45:48.524Z,100219.88
2023-02-13T05:46:50.797Z,100217.31
2023-02-13T05:47:52.726Z,100217.31
2023-02-13T05:48:54.874Z,100222.59
2023-02-13T05:49:56.878Z,100223.63
2023-02-13T05:50:59.224Z,100226.31
2023-02-13T05:52:01.242Z,100213.56
2023-02-13T05:53:03.274Z,100220.50
2023-02-13T05:54:05.342Z,100211.13
2023-02-13T05:55:08.087Z,100214.66
2023-02-13T05:56:10.027Z,100219.03
2023-02-13T05:57:12.003Z,100214.75
2023-02-13T05:58:14.110Z,100207.00
2023-02-13T05:59:16.315Z,100201.00
2023-02-13T06:00:18.891Z,100211.41
2023-02-13T06:01:21.986Z,100204.50
2023-02-13T06:02:23.933Z,100209.78
2023-02-13T06:03:27.661Z,100202.06
2023-02-13T06:04:29.714Z,100199.66
2023-02-13T06:05:31.665Z,100199.75
2023-02-13T06:06:33.867Z,100188.56
2023-02-13T06:07:36.012Z,100202.41
2023-02-13T06:08:38.029Z,100193.13
2023-02-13T06:09:40.082Z,100201.88
2023-02-13T06:10:44.299Z,100196.78
2023-02-13T06:11:47.202Z,100196.88
2023-02-13T06:12:49.170Z,100204.78
2023-02-13T06:13:51.112Z,100193.69
2023-02-13T06:14:53.009Z,100195.44
2023-02-13T06:15:55.467Z,100197.16
2023-02-13T06:16:57.638Z,100194.59
2023-02-13T06:17:59.740Z,100196.44
2023-02-13T06:19:01.629Z,100195.59
2023-02-13T06:20:03.881Z,100191.81
2023-02-13T06:21:06.883Z,100189.41
2023-02-13T06:22:09.133Z,100191.22
2023-02-13T06:23:11.118Z,100187.06
2023-02-13T06:24:13.028Z,100186.31
2023-02-13T06:25:15.198Z,100186.50
2023-02-13T06:26:17.209Z,100188.13
2023-02-13T06:27:19.144Z,100192.50
2023-02-13T06:28:21.268Z,100186.56
2023-02-13T06:29:23.245Z,100189.25
2023-02-13T06:30:25.470Z,100190.19
2023-02-13T06:31:27.784Z,100179.00
2023-02-13T06:32:29.874Z,100177.34
2023-02-13T06:33:32.395Z,100182.53
2023-02-13T06:34:34.371Z,100184.34
2023-02-13T06:35:36.445Z,100179.25
2023-02-13T06:36:38.758Z,100179.34
2023-02-13T06:37:41.362Z,100174.19
2023-02-13T06:38:43.326Z,100176.78
2023-02-13T06:39:45.550Z,100181.81
2023-02-13T06:40:48.269Z,100177.53
2023-02-13T06:41:50.252Z,100173.22
2023-02-13T06:42:52.565Z,100173.25
2023-02-13T06:43:54.675Z,100169.03
2023-02-13T06:44:56.731Z,100174.28
2023-02-13T06:45:59.266Z,100175.19
2023-02-13T06:47:01.288Z,100176.13
2023-02-13T06:48:03.362Z,100171.06
2023-02-13T06:49:05.272Z,100179.66
2023-02-13T06:50:08.105Z,100174.63
2023-02-13T06:51:10.297Z,100169.44
2023-02-13T06:52:12.353Z,100175.50
2023-02-13T06:53:14.420Z,100173.81
2023-02-13T06:54:16.424Z,100170.38
2023-02-13T06:55:19.177Z,100171.38
2023-02-13T06:56:21.187Z,100174.94
2023-02-13T06:57:23.081Z,100166.38
2023-02-13T06:58:25.914Z,100171.59
2023-02-13T06:59:27.879Z,100171.59
2023-02-13T07:00:30.169Z,100161.28
2023-02-13T07:01:33.034Z,100162.94
2023-02-13T07:02:35.191Z,100169.88
2023-02-13T07:03:37.238Z,100172.50
2023-02-13T07:04:39.485Z,100165.69
2023-02-13T07:05:42.391Z,100164.78
2023-02-13T07:06:44.441Z,100170.00
2023-02-13T07:07:46.380Z,100170.03
2023-02-13T07:08:48.841Z,100173.38
2023-02-13T07:09:51.131Z,100163.97
2023-02-13T07:10:54.040Z,100161.41
2023-02-13T07:11:56.265Z,100164.91
2023-02-13T07:13:05.790Z,100165.84
2023-02-13T07:14:09.718Z,100161.41
2023-02-13T07:15:12.424Z,100167.38
2023-02-13T07:16:14.981Z,100169.06
2023-02-13T07:17:17.485Z,100163.97
2023-02-13T07:18:19.582Z,100157.03
2023-02-13T07:19:21.769Z,100158.72
2023-02-13T07:20:24.914Z,100162.13
2023-02-13T07:21:26.993Z,100170.78
2023-02-13T07:22:29.311Z,100163.97
2023-02-13T07:23:31.695Z,100164.78
2023-02-13T07:24:35.541Z,100167.44
2023-02-13T07:25:37.608Z,100158.97
2023-02-13T07:26:39.605Z,100163.44
2023-02-13T07:27:42.449Z,100157.53
2023-02-13T07:28:44.657Z,100158.50
2023-02-13T07:29:46.641Z,100167.25
2023-02-13T07:30:48.772Z,100163.88
2023-02-13T07:31:50.948Z,100160.41
2023-02-13T07:32:53.151Z,100162.31
2023-02-13T07:33:55.080Z,100155.53
2023-02-13T07:35:01.951Z,100152.19
2023-02-13T07:36:05.223Z,100147.09
2023-02-13T07:37:07.182Z,100150.69
2023-02-13T07:38:11.264Z,100156.00
2023-02-13T07:39:13.630Z,100150.06
2023-02-13T07:40:15.742Z,100157.66
2023-02-13T07:41:17.894Z,100158.69
2023-02-13T07:42:19.943Z,100156.16
2023-02-13T07:43:22.153Z,100158.09
2023-02-13T07:44:25.437Z,100168.69
2023-02-13T07:45:27.663Z,100155.84
2023-02-13T07:46:29.822Z,100158.63
2023-02-13T07:47:31.878Z,100153.59
2023-02-13T07:48:33.912Z,100161.50
2023-02-13T07:49:37.319Z,100158.94
2023-02-13T07:50:39.506Z,100159.94
2023-02-13T07:51:41.667Z,100158.34
2023-02-13T07:52:43.900Z,100154.16
2023-02-13T07:53:46.100Z,100155.75
2023-02-13T07:54:48.401Z,100157.28
2023-02-13T07:55:50.655Z,100158.00
2023-02-13T07:56:52.937Z,100154.47
2023-02-13T07:57:55.234Z,100163.97
2023-02-13T07:58:57.381Z,100159.66
2023-02-13T07:59:59.428Z,100161.38
2023-02-13T08:01:09.292Z,100164.16
2023-02-13T08:02:13.679Z,100159.66
2023-02-13T08:03:17.490Z,100163.97
2023-02-13T08:04:19.690Z,100158.72
2023-02-13T08:05:23.329Z,100158.72
2023-02-13T08:06:25.665Z,100175.13
2023-02-13T08:07:27.805Z,100172.69
2023-02-13T08:08:30.034Z,100171.06
2023-02-13T08:09:50.903Z,100164.31
2023-02-13T08:11:11.647Z,100168.81
2023-02-13T08:12:13.782Z,100171.44
2023-02-13T08:13:17.165Z,100165.63
2023-02-13T08:14:19.260Z,100168.38
2023-02-13T08:15:21.450Z,100155.59
2023-02-13T08:16:23.443Z,100163.47
2023-02-13T08:17:25.522Z,100163.66
2023-02-13T08:18:27.619Z,100170.72
2023-02-13T08:19:30.273Z,100164.72
2023-02-13T08:20:32.620Z,100155.34
2023-02-13T08:21:35.468Z,100163.78
2023-02-13T08:22:38.584Z,100162.00
2023-02-13T08:23:40.754Z,100162.00
2023-02-13T08:24:42.711Z,100153.34
2023-02-13T08:25:45.008Z,100159.41
2023-02-13T08:26:47.024Z,100148.13
2023-02-13T08:27:49.011Z,100150.59
2023-02-13T08:28:51.124Z,100148.00
2023-02-13T08:29:53.124Z,100147.00
2023-02-13T08:30:55.675Z,100152.13
2023-02-13T08:31:57.880Z,100139.97
2023-02-13T08:33:00.066Z,100145.78
2023-02-13T08:34:02.082Z,100150.84
2023-02-13T08:35:04.407Z,100141.13
2023-02-13T08:36:06.930Z,100154.03
2023-02-13T08:37:09.156Z,100151.47
2023-02-13T08:38:11.169Z,100148.09
2023-02-13T08:39:13.411Z,100143.03
2023-02-13T08:40:15.702Z,100143.09
2023-02-13T08:41:24.067Z,100138.66
2023-02-13T08:42:26.069Z,100131.63
2023-02-13T08:43:28.053Z,100135.00
2023-02-13T08:44:30.111Z,100136.63
2023-02-13T08:45:33.668Z,100138.34
2023-02-13T08:46:35.701Z,100128.84
2023-02-13T08:47:38.699Z,100128.84
2023-02-13T08:48:40.817Z,100128.13
2023-02-13T08:49:43.291Z,100128.19
2023-02-13T08:50:45.353Z,100135.09
2023-02-13T08:51:47.480Z,100128.22
2023-02-13T08:52:49.545Z,100133.34
2023-02-13T08:53:51.818Z,100128.91
2023-02-13T08:54:53.840Z,100134.03
2023-02-13T08:55:57.877Z,100129.63
2023-02-13T08:56:59.930Z,100128.09
2023-02-13T08:58:03.708Z,100127.16
2023-02-13T08:59:05.772Z,100121.09
2023-02-13T09:00:08.477Z,100118.53
2023-02-13T09:01:10.606Z,100122.06
2023-02-13T09:02:13.070Z,100114.44
2023-02-13T09:03:15.521Z,100113.75
2023-02-13T09:04:18.555Z,100112.19
2023-02-13T09:05:21.061Z,100107.94
2023-02-13T09:06:23.217Z,100115.88
2023-02-13T09:07:25.882Z,100115.00
2023-02-13T09:08:28.633Z,100111.50
2023-02-13T09:09:30.685Z,100113.13
2023-02-13T09:10:33.711Z,100108.69
2023-02-13T09:11:35.678Z,100109.44
2023-02-13T09:12:38.058Z,100104.13
2023-02-13T09:13:40.054Z,100113.63
2023-02-13T09:14:42.269Z,100099.63
2023-02-13T09:15:44.690Z,100106.53
2023-02-13T09:16:46.849Z,100099.72
2023-02-13T09:17:48.936Z,100101.72
2023-02-13T09:18:52.317Z,100102.69
2023-02-13T09:19:54.606Z,100094.19
2023-02-13T09:21:14.760Z,100094.50
2023-02-13T09:22:18.722Z,100099.03
2023-02-13T09:23:20.696Z,100095.75
2023-02-13T09:24:22.767Z,100093.19
2023-02-13T09:25:24.930Z,100099.34
2023-02-13T09:26:27.117Z,100091.34
2023-02-13T09:27:29.179Z,100092.91
2023-02-13T09:28:32.743Z,100091.19
2023-02-13T09:29:35.353Z,100096.44
2023-02-13T09:30:37.358Z,100087.84
2023-02-13T09:31:39.635Z,100092.28
2023-02-13T09:32:42.097Z,100083.81
2023-02-13T09:33:45.185Z,100089.25
2023-02-13T09:34:47.544Z,100082.50
2023-02-13T09:35:49.823Z,100077.50
2023-02-13T09:36:53.647Z,100075.91
2023-02-13T09:37:56.047Z,100069.09
2023-02-13T09:38:58.201Z,100078.75
2023-02-13T09:40:00.188Z,100072.78
2023-02-13T09:41:25.156Z,100072.88
2023-02-13T09:42:31.939Z,100072.97
2023-02-13T09:43:37.162Z,100064.38
2023-02-13T09:44:44.349Z,100067.91
2023-02-13T09:45:50.688Z,100063.56
2023-02-13T09:46:52.769Z,100060.97
2023-02-13T09:47:55.090Z,100062.72
2023-02-13T09:49:00.552Z,100061.84
2023-02-13T09:50:07.547Z,100054.88
2023-02-13T09:51:16.328Z,100066.91
2023-02-13T09:52:18.930Z,100062.31
2023-02-13T09:53:23.485Z,100065.63
2023-02-13T09:54:27.350Z,100075.00
2023-02-13T09:55:56.516Z,100064.66
2023-02-13T09:57:05.282Z,100074.94
2023-02-13T09:58:20.943Z,100074.03
2023-02-13T09:59:44.938Z,100073.16
2023-02-13T10:00:50.957Z,100072.22
2023-02-13T10:01:58.166Z,100066.97
2023-02-13T10:03:01.391Z,100067.06
2023-02-13T10:04:48.878Z,100069.00
2023-02-13T10:06:09.598Z,100063.97
2023-02-13T10:07:17.906Z,100071.78
2023-02-13T10:08:55.814Z,100071.78
2023-02-13T10:10:26.597Z,100059.47
2023-02-13T10:12:09.818Z,100058.66
2023-02-13T10:13:28.558Z,100056.97
2023-02-13T10:14:53.602Z,100060.28
2023-02-13T10:16:10.498Z,100061.06
2023-02-13T10:17:21.470Z,100058.47
2023-02-13T10:18:32.248Z,100067.06
2023-02-13T10:19:42.851Z,100058.41
2023-02-13T10:20:45.552Z,100059.44
2023-02-13T10:21:58.985Z,100061.97
2023-02-13T10:23:08.750Z,100055.81
2023-02-13T10:24:26.419Z,100051.50
2023-02-13T10:25:35.695Z,100058.41
2023-02-13T10:26:45.781Z,100048.91
2023-02-13T10:27:56.105Z,100050.63
2023-02-13T10:29:26.181Z,100051.53
2023-02-13T10:30:36.916Z,100047.31
2023-02-13T10:31:40.655Z,100043.91
2023-02-13T10:32:46.284Z,100050.81
2023-02-13T10:33:52.317Z,100049.13
2023-02-13T10:34:59.236Z,100047.44
2023-02-13T10:36:07.449Z,100043.09
2023-02-13T10:37:21.590Z,100048.22
2023-02-13T10:38:24.372Z,100048.03
2023-02-13T10:39:31.205Z,100052.25
2023-02-13T10:40:40.912Z,100047.84
2023-02-13T10:41:58.120Z,100048.66
2023-02-13T10:43:06.189Z,100046.84
2023-02-13T10:44:26.573Z,100051.91
2023-02-13T10:45:44.561Z,100052.81
2023-02-13T10:46:55.715Z,100046.72
2023-02-13T10:48:35.504Z,100047.53
2023-02-13T10:49:56.417Z,100050.03
2023-02-13T10:51:10.745Z,100039.28
2023-02-13T10:52:30.794Z,100045.22
2023-02-13T10:53:53.930Z,100048.69
2023-02-13T10:55:19.771Z,100041.59
2023-02-13T10:56:59.819Z,100037.72
2023-02-13T10:58:27.488Z,100039.22
2023-02-13T10:59:29.662Z,100043.31
2023-02-13T11:00:56.378Z,100042.41
2023-02-13T11:02:17.985Z,100041.56
2023-02-13T11:03:28.352Z,100054.59
2023-02-13T11:04:30.712Z,100043.44
2023-02-13T11:05:40.452Z,100045.31
2023-02-13T11:06:55.619Z,100044.59
2023-02-13T11:07:58.288Z,100045.50
2023-02-13T11:09:00.544Z,100036.88
2023-02-13T11:10:13.799Z,100037.75
2023-02-13T11:11:36.989Z,100038.59
2023-02-13T11:12:39.078Z,100036.75
2023-02-13T11:13:43.637Z,100031.50
2023-02-13T11:15:00.035Z,100035.78
2023-02-13T11:16:08.131Z,100040.97
2023-02-13T11:17:18.824Z,100034.03
2023-02-13T11:18:22.581Z,100036.75
2023-02-13T11:19:51.991Z,100037.56
2023-02-13T11:21:14.660Z,100031.56
2023-02-13T11:22:33.933Z,100029.91
2023-02-13T11:23:43.822Z,100029.84
2023-02-13T11:24:59.275Z,100024.53
2023-02-13T11:26:26.716Z,100029.47
2023-02-13T11:27:37.337Z,100025.97
2023-02-13T11:28:47.308Z,100022.59
2023-02-13T11:29:58.357Z,100028.38
2023-02-13T11:31:21.119Z,100023.31
2023-02-13T11:32:34.376Z,100018.13
2023-02-13T11:33:36.553Z,100017.31
2023-02-13T11:34:39.100Z,100016.34
2023-02-13T11:35:41.147Z,100020.47
2023-02-13T11:36:43.294Z,100020.28
2023-02-13T11:37:45.448Z,100016.84
2023-02-13T11:39:02.365Z,100027.19
2023-02-13T11:40:29.644Z,100025.53
2023-02-13T11:41:37.871Z,100022.06
2023-02-13T11:42:43.517Z,100028.88
2023-02-13T11:43:53.864Z,100033.97
2023-02-13T11:45:04.941Z,100026.19
2023-02-13T11:46:14.362Z,100021.88
2023-02-13T11:47:34.489Z,100023.47
2023-02-13T11:48:36.655Z,100016.44
2023-02-13T11:49:39.750Z,100016.38
2023-02-13T11:50:42.162Z,100014.63
2023-02-13T11:51:50.564Z,100018.16
2023-02-13T11:53:00.192Z,100010.34
2023-02-13T11:54:03.506Z,100008.53
2023-02-13T11:55:25.134Z,100011.91
2023-02-13T11:56:27.233Z,100008.59
2023-02-13T11:57:35.032Z,100001.81
2023-02-13T11:58:37.910Z,99999.38
2023-02-13T11:59:43.824Z,99999.50
2023-02-13T12:00:46.940Z,100003.03
2023-02-13T12:02:02.824Z,100000.56
2023-02-13T12:03:29.324Z,100004.94
2023-02-13T12:04:31.635Z,99999.81
2023-02-13T12:05:33.917Z,99998.97
2023-02-13T12:06:42.667Z,100000.75
2023-02-13T12:07:46.268Z,99995.63
2023-02-13T12:08:50.529Z,99998.25
2023-02-13T12:10:02.661Z,99999.16
2023-02-13T12:11:15.181Z,100002.72
2023-02-13T12:12:26.914Z,100014.78
2023-02-13T12:13:39.200Z,100010.47
2023-02-13T12:14:45.184Z,100001.84
2023-02-13T12:15:51.550Z,100005.38
2023-02-13T12:17:19.032Z,100001.09
2023-02-13T12:18:38.281Z,99998.56
2023-02-13T12:19:42.586Z,99998.53
2023-02-13T12:21:03.352Z,100008.19
2023-02-13T12:22:15.224Z,100011.63
2023-02-13T12:23:26.679Z,100006.41
2023-02-13T12:24:50.368Z,99993.47
2023-02-13T12:26:23.161Z,100007.28
2023-02-13T12:27:25.370Z,100002.09
2023-02-13T12:28:39.147Z,100002.03
2023-02-13T12:30:13.938Z,100006.41
2023-02-13T12:31:46.923Z,100000.34
2023-02-13T12:33:18.635Z,100005.47
2023-02-13T12:34:38.638Z,100003.75
2023-02-13T12:36:11.563Z,100002.88
2023-02-13T12:37:41.486Z,100003.75
2023-02-13T12:38:58.507Z,100003.69
2023-02-13T12:40:28.834Z,100007.94
2023-02-13T12:42:12.965Z,100005.25
2023-02-13T12:43:33.517Z,99998.31
2023-02-13T12:44:46.137Z,100003.44
2023-02-13T12:46:14.886Z,99996.50
2023-02-13T12:47:22.285Z,99996.44
2023-02-13T12:48:45.345Z,99991.31
2023-02-13T12:50:37.997Z,99996.50
2023-02-13T12:52:02.852Z,99990.31
2023-02-13T12:53:23.563Z,99982.38
2023-02-13T12:54:31.591Z,99983.16
2023-02-13T12:56:10.018Z,99989.16